createdAt,value
2023-01-10T00:00:26.042Z,99153.44
2023-01-10T00:04:28.723Z,99161.50
2023-01-10T00:08:30.506Z,99172.78
2023-01-10T00:12:51.141Z,99189.19
2023-01-10T00:16:52.855Z,99191.38
2023-01-10T00:20:54.545Z,99194.16
2023-01-10T00:24:56.279Z,99189.16
2023-01-10T00:28:58.035Z,99207.53
2023-01-10T00:32:59.801Z,99208.03
2023-01-10T00:37:01.620Z,99221.50
2023-01-10T00:41:03.936Z,99236.50
2023-01-10T00:45:06.256Z,99229.50
2023-01-10T00:49:13.867Z,99224.84
2023-01-10T00:53:15.862Z,99245.00
2023-01-10T00:57:17.602Z,99260.38
2023-01-10T01:01:19.415Z,99268.38
2023-01-10T01:05:21.266Z,99280.56
2023-01-10T01:09:23.031Z,99281.97
2023-01-10T01:13:25.676Z,99292.06
2023-01-10T01:17:27.414Z,99306.00
2023-01-10T01:21:29.154Z,99309.47
2023-01-10T01:25:31.268Z,99323.53
2023-01-10T01:29:43.106Z,99323.66
2023-01-10T01:33:46.406Z,99335.97
2023-01-10T01:37:48.151Z,99346.53
2023-01-10T01:41:58.590Z,99355.66
2023-01-10T01:46:02.687Z,99340.34
2023-01-10T01:50:05.106Z,99339.44
2023-01-10T01:54:09.152Z,99342.72
2023-01-10T01:58:15.741Z,99346.00
2023-01-10T02:02:21.699Z,99358.56
2023-01-10T02:06:23.992Z,99351.19
2023-01-10T02:10:38.599Z,99362.81
2023-01-10T02:14:40.308Z,99359.53
2023-01-10T02:18:42.586Z,99351.47
2023-01-10T02:23:13.605Z,99363.53
2023-01-10T02:27:53.690Z,99372.53
2023-01-10T02:32:16.736Z,99380.19
2023-01-10T02:36:44.596Z,99383.19
2023-01-10T02:41:06.265Z,99395.50
2023-01-10T02:45:19.429Z,99406.19
2023-01-10T02:49:21.246Z,99417.66
2023-01-10T02:53:42.005Z,99418.63
2023-01-10T02:57:59.139Z,99431.31
2023-01-10T03:02:28.292Z,99438.31
2023-01-10T03:06:50.869Z,99452.41
2023-01-10T03:11:05.650Z,99460.22
2023-01-10T03:15:08.220Z,99457.72
2023-01-10T03:19:24.254Z,99461.16
2023-01-10T03:23:26.001Z,99460.75
2023-01-10T03:27:51.946Z,99471.84
2023-01-10T03:31:57.360Z,99493.13
2023-01-10T03:36:28.172Z,99491.47
2023-01-10T03:40:43.280Z,99513.28
2023-01-10T03:44:56.029Z,99516.66
2023-01-10T03:48:57.790Z,99521.06
2023-01-10T03:52:59.513Z,99529.53
2023-01-10T03:57:02.858Z,99538.84
2023-01-10T04:01:05.017Z,99555.53
2023-01-10T04:05:07.384Z,99544.31
2023-01-10T04:09:09.348Z,99547.72
2023-01-10T04:13:11.143Z,99562.38
2023-01-10T04:17:14.371Z,99566.88
2023-01-10T04:21:16.151Z,99577.41
2023-01-10T04:25:17.929Z,99576.75
2023-01-10T04:29:19.680Z,99596.88
2023-01-10T04:33:21.475Z,99601.81
2023-01-10T04:37:23.177Z,99617.09
2023-01-10T04:41:24.916Z,99624.44
2023-01-10T04:45:26.642Z,99625.25
2023-01-10T04:49:28.538Z,99645.09
2023-01-10T04:53:30.254Z,99647.66
2023-01-10T04:57:32.249Z,99643.97
2023-01-10T05:01:36.377Z,99655.31
2023-01-10T05:05:38.461Z,99669.25
2023-01-10T05:09:40.280Z,99676.28
2023-01-10T05:13:42.137Z,99686.19
2023-01-10T05:17:43.992Z,99685.88
2023-01-10T05:21:45.827Z,99687.56
2023-01-10T05:25:47.673Z,99699.53
2023-01-10T05:29:49.656Z,99702.53
2023-01-10T05:33:51.655Z,99706.78
2023-01-10T05:37:54.093Z,99708.31
2023-01-10T05:41:55.896Z,99730.53
2023-01-10T05:45:57.693Z,99728.34
2023-01-10T05:49:59.478Z,99740.81
2023-01-10T05:54:01.208Z,99745.69
2023-01-10T05:58:03.336Z,99765.25
2023-01-10T06:02:05.090Z,99778.97
2023-01-10T06:06:07.164Z,99764.69
2023-01-10T06:10:09.631Z,99783.09
2023-01-10T06:14:20.244Z,99792.34
2023-01-10T06:18:24.089Z,99799.00
2023-01-10T06:22:29.192Z,99817.56
2023-01-10T06:26:31.276Z,99812.25
2023-01-10T06:30:35.393Z,99820.16
2023-01-10T06:34:37.221Z,99826.06
2023-01-10T06:38:41.676Z,99839.13
2023-01-10T06:42:44.461Z,99850.25
2023-01-10T06:46:46.508Z,99858.75
2023-01-10T06:50:50.302Z,99864.13
2023-01-10T06:54:53.190Z,99872.63
2023-01-10T06:58:54.952Z,99891.13
2023-01-10T07:03:01.126Z,99903.66
2023-01-10T07:07:02.824Z,99899.06
2023-01-10T07:11:04.815Z,99912.78
2023-01-10T07:15:09.676Z,99912.31
2023-01-10T07:19:13.779Z,99931.69
2023-01-10T07:23:15.594Z,99926.97
2023-01-10T07:27:17.322Z,99945.56
2023-01-10T07:31:19.958Z,99960.34
2023-01-10T07:35:22.578Z,99960.06
2023-01-10T07:39:24.308Z,99986.84
2023-01-10T07:43:26.125Z,99989.63
2023-01-10T07:47:28.667Z,99980.97
2023-01-10T07:51:30.415Z,99988.44
2023-01-10T07:55:34.676Z,100000.84
2023-01-10T07:59:36.401Z,100004.22
2023-01-10T08:03:38.289Z,100000.81
2023-01-10T08:07:40.284Z,100019.59
2023-01-10T08:11:43.304Z,100023.59
2023-01-10T08:15:47.146Z,100032.47
2023-01-10T08:19:49.046Z,100036.56
2023-01-10T08:23:51.679Z,100035.19
2023-01-10T08:27:53.437Z,100053.81
2023-01-10T08:31:55.409Z,100049.56
2023-01-10T08:35:57.207Z,100059.97
2023-01-10T08:39:58.942Z,100057.94
2023-01-10T08:44:00.916Z,100047.13
2023-01-10T08:48:03.487Z,100064.72
2023-01-10T08:52:06.394Z,100088.56
2023-01-10T08:56:08.558Z,100089.75
2023-01-10T09:00:12.332Z,100083.59
2023-01-10T09:04:14.233Z,100092.09
2023-01-10T09:08:15.957Z,100107.69
2023-01-10T09:12:36.075Z,100108.25
2023-01-10T09:16:37.831Z,100119.00
2023-01-10T09:20:40.856Z,100111.88
2023-01-10T09:24:44.008Z,100133.56
2023-01-10T09:28:48.661Z,100151.16
2023-01-10T09:32:53.991Z,100154.69
2023-01-10T09:36:55.779Z,100156.25
2023-01-10T09:41:26.359Z,100170.78
2023-01-10T09:45:51.190Z,100175.81
2023-01-10T09:50:05.368Z,100161.41
2023-01-10T09:54:26.043Z,100172.22
2023-01-10T09:58:31.190Z,100173.53
2023-01-10T10:02:39.718Z,100176.78
2023-01-10T10:06:41.452Z,100172.31
2023-01-10T10:10:52.427Z,100172.22
2023-01-10T10:15:24.948Z,100168.19
2023-01-10T10:19:39.099Z,100174.03
2023-01-10T10:24:18.164Z,100166.47
2023-01-10T10:29:04.721Z,100165.66
2023-01-10T10:33:48.921Z,100166.50
2023-01-10T10:37:52.387Z,100179.69
2023-01-10T10:41:54.136Z,100169.59
2023-01-10T10:46:05.711Z,100176.75
2023-01-10T10:50:19.626Z,100168.41
2023-01-10T10:54:21.479Z,100172.09
2023-01-10T10:58:23.386Z,100182.88
2023-01-10T11:02:27.850Z,100193.44
2023-01-10T11:06:33.189Z,100196.66
2023-01-10T11:10:36.093Z,100189.97
2023-01-10T11:14:47.144Z,100193.75
2023-01-10T11:18:49.331Z,100200.84
2023-01-10T11:22:53.456Z,100193.63
2023-01-10T11:26:57.948Z,100188.22
2023-01-10T11:31:00.442Z,100213.78
2023-01-10T11:35:33.343Z,100212.91
2023-01-10T11:39:35.327Z,100204.25
2023-01-10T11:43:40.723Z,100191.75
2023-01-10T11:47:54.658Z,100189.13
2023-01-10T11:52:27.217Z,100187.25
2023-01-10T11:56:32.348Z,100195.66
2023-01-10T12:00:41.020Z,100202.34
2023-01-10T12:04:45.263Z,100208.78
2023-01-10T12:08:47.764Z,100200.47
2023-01-10T12:12:59.632Z,100222.50
2023-01-10T12:17:03.532Z,100211.66
2023-01-10T12:21:05.803Z,100210.50
2023-01-10T12:25:32.242Z,100215.75
2023-01-10T12:29:37.538Z,100226.75
2023-01-10T12:33:47.784Z,100230.81
2023-01-10T12:38:19.014Z,100233.75
2023-01-10T12:43:14.151Z,100222.94
2023-01-10T12:47:25.005Z,100246.94
2023-01-10T12:51:26.951Z,100231.19
2023-01-10T12:55:34.412Z,100242.03
2023-01-10T12:59:39.890Z,100249.84
2023-01-10T13:03:41.837Z,100257.44
2023-01-10T13:07:43.919Z,100266.41
2023-01-10T13:12:37.036Z,100261.44
2023-01-10T13:16:58.140Z,100263.13
2023-01-10T13:21:15.613Z,100267.63
2023-01-10T13:25:30.348Z,100270.34
2023-01-10T13:29:40.646Z,100265.09
2023-01-10T13:33:56.584Z,100278.25
2023-01-10T13:37:59.028Z,100268.16
2023-01-10T13:42:19.249Z,100278.94
2023-01-10T13:46:24.067Z,100290.75
2023-01-10T13:50:26.160Z,100296.19
2023-01-10T13:54:30.883Z,100299.53
2023-01-10T13:59:00.944Z,100309.47
2023-01-10T14:03:02.860Z,100306.16
2023-01-10T14:07:44.450Z,100306.34
2023-01-10T14:11:58.701Z,100293.75
2023-01-10T14:16:00.574Z,100304.19
2023-01-10T14:20:16.082Z,100313.97
2023-01-10T14:24:43.324Z,100311.28
2023-01-10T14:28:45.055Z,100321.28
2023-01-10T14:32:51.121Z,100307.03
2023-01-10T14:37:10.888Z,100310.59
2023-01-10T14:41:18.451Z,100312.41
2023-01-10T14:45:48.030Z,100304.41
2023-01-10T14:49:51.278Z,100309.06
2023-01-10T14:54:01.643Z,100318.22
2023-01-10T14:58:03.554Z,100304.59
2023-01-10T15:02:25.513Z,100302.84
2023-01-10T15:06:27.584Z,100313.41
2023-01-10T15:10:38.485Z,100304.44
2023-01-10T15:14:40.285Z,100313.41
2023-01-10T15:18:44.725Z,100326.91
2023-01-10T15:22:55.482Z,100335.31
2023-01-10T15:27:05.442Z,100331.66
2023-01-10T15:31:08.069Z,100334.47
2023-01-10T15:35:11.028Z,100345.16
2023-01-10T15:39:19.996Z,100350.94
2023-01-10T15:43:25.543Z,100349.06
2023-01-10T15:47:44.002Z,100339.69
2023-01-10T15:51:47.572Z,100348.03
2023-01-10T15:56:10.756Z,100351.81
2023-01-10T16:00:17.589Z,100364.81
2023-01-10T16:04:19.536Z,100357.59
2023-01-10T16:08:25.069Z,100354.88
2023-01-10T16:12:55.480Z,100351.09
2023-01-10T16:16:57.268Z,100354.19
2023-01-10T16:21:01.198Z,100335.72
2023-01-10T16:25:02.920Z,100341.78
2023-01-10T16:29:04.661Z,100344.16
2023-01-10T16:33:23.400Z,100342.38
2023-01-10T16:37:27.655Z,100355.16
2023-01-10T16:41:47.694Z,100345.34
2023-01-10T16:46:00.449Z,100343.09
2023-01-10T16:50:02.517Z,100336.47
2023-01-10T16:54:04.489Z,100325.72
2023-01-10T16:58:06.990Z,100329.75
2023-01-10T17:02:17.796Z,100337.53
2023-01-10T17:06:19.747Z,100329.63
2023-01-10T17:10:21.491Z,100329.97
2023-01-10T17:14:23.753Z,100333.50
2023-01-10T17:18:28.647Z,100330.56
2023-01-10T17:22:30.645Z,100335.06
2023-01-10T17:26:32.540Z,100337.44
2023-01-10T17:30:34.548Z,100353.47
2023-01-10T17:34:38.657Z,100345.81
2023-01-10T17:38:43.032Z,100351.84
2023-01-10T17:42:47.453Z,100338.84
2023-01-10T17:46:49.416Z,100348.28
2023-01-10T17:50:59.523Z,100345.47
2023-01-10T17:55:03.436Z,100329.38
2023-01-10T17:59:05.358Z,100335.53
2023-01-10T18:03:07.699Z,100337.19
2023-01-10T18:07:13.118Z,100334.94
2023-01-10T18:11:15.065Z,100336.94
2023-01-10T18:15:17.026Z,100353.97
2023-01-10T18:19:18.869Z,100360.84
2023-01-10T18:23:25.063Z,100367.34
2023-01-10T18:27:29.555Z,100361.53
2023-01-10T18:31:31.542Z,100350.06
2023-01-10T18:35:33.502Z,100356.78
2023-01-10T18:39:35.501Z,100362.06
2023-01-10T18:43:37.549Z,100360.66
2023-01-10T18:47:39.688Z,100361.63
2023-01-10T18:51:41.754Z,100359.50
2023-01-10T18:55:58.286Z,100344.97
2023-01-10T19:00:00.216Z,100337.53
2023-01-10T19:04:04.512Z,100343.88
2023-01-10T19:08:07.076Z,100342.28
2023-01-10T19:12:09.004Z,100348.16
2023-01-10T19:16:18.789Z,100338.44
2023-01-10T19:20:23.907Z,100339.06
2023-01-10T19:24:40.349Z,100337.16
2023-01-10T19:28:53.424Z,100329.09
2023-01-10T19:33:01.652Z,100329.44
2023-01-10T19:37:03.542Z,100334.56
2023-01-10T19:41:08.651Z,100324.72
2023-01-10T19:45:10.762Z,100324.72
2023-01-10T19:49:40.900Z,100332.81
2023-01-10T19:53:49.135Z,100328.19
2023-01-10T19:57:57.142Z,100308.28
2023-01-10T20:02:07.466Z,100307.22
2023-01-10T20:06:19.352Z,100302.69
2023-01-10T20:10:33.598Z,100315.44
2023-01-10T20:14:35.629Z,100325.72
2023-01-10T20:18:44.769Z,100309.44
2023-01-10T20:22:50.177Z,100304.34
2023-01-10T20:26:55.257Z,100308.91
2023-01-10T20:31:03.741Z,100289.63
2023-01-10T20:35:12.514Z,100285.50
2023-01-10T20:39:16.840Z,100285.69
2023-01-10T20:43:26.167Z,100303.06
2023-01-10T20:47:34.443Z,100299.72
2023-01-10T20:51:37.973Z,100287.31
2023-01-10T20:55:40.332Z,100296.81
2023-01-10T20:59:42.272Z,100292.44
2023-01-10T21:03:45.639Z,100304.84
2023-01-10T21:07:48.597Z,100286.75
2023-01-10T21:12:02.114Z,100280.78
2023-01-10T21:16:09.748Z,100290.00
2023-01-10T21:20:12.338Z,100275.97
2023-01-10T21:24:15.821Z,100277.59
2023-01-10T21:28:18.034Z,100279.91
2023-01-10T21:32:19.823Z,100276.63
2023-01-10T21:36:21.569Z,100284.56
2023-01-10T21:40:24.750Z,100262.25
2023-01-10T21:44:28.957Z,100288.75
2023-01-10T21:49:03.305Z,100280.97
2023-01-10T21:53:05.192Z,100271.00
2023-01-10T21:57:07.060Z,100278.84
2023-01-10T22:01:08.894Z,100274.66
2023-01-10T22:05:11.400Z,100275.19
2023-01-10T22:09:15.623Z,100277.97
2023-01-10T22:13:17.460Z,100274.25
2023-01-10T22:17:19.275Z,100264.13
2023-01-10T22:21:21.494Z,100253.53
2023-01-10T22:25:23.335Z,100243.75
2023-01-10T22:29:26.276Z,100240.19
2023-01-10T22:33:29.639Z,100239.59
2023-01-10T22:37:31.386Z,100217.34
2023-01-10T22:41:33.447Z,100217.34
2023-01-10T22:45:35.380Z,100225.47
2023-01-10T22:49:37.211Z,100215.72
2023-01-10T22:53:39.169Z,100208.91
2023-01-10T22:57:47.197Z,100203.38
2023-01-10T23:01:49.662Z,100199.13
2023-01-10T23:05:56.422Z,100197.47
2023-01-10T23:09:58.219Z,100194.25
2023-01-10T23:14:00.027Z,100191.56
2023-01-10T23:18:01.915Z,100197.03
2023-01-10T23:22:03.736Z,100177.66
2023-01-10T23:26:07.840Z,100192.22
2023-01-10T23:30:10.730Z,100185.59
2023-01-10T23:34:12.468Z,100175.72
2023-01-10T23:38:14.169Z,100174.78
2023-01-10T23:42:15.928Z,100165.00
2023-01-10T23:46:17.961Z,100173.88
2023-01-10T23:50:21.509Z,100159.84
2023-01-10T23:54:23.493Z,100153.41
2023-01-10T23:58:25.211Z,100144.81
